Time;durP1;ratioP1;P1;durP2;ratioP2;P2;SDS_P1;SDS_P2;PMS_P1;PMS_P2;Temp;Humidity;BMP_temperature;BMP_pressure;BME280_temperature;BME280_humidity;BME280_pressure;Samples;Min_cycle;Max_cycle;Signal;HPM_P1;HPM_P2
2023/07/14 00:00:19;;;;;;;15.18;5.57;;;;;;;24.35;56.61;93923.16;5062865;28;20051;-77
2023/07/14 00:02:46;;;;;;;14.03;5.37;;;;;;;24.32;57.08;93923.19;5062882;28;20059;-78
2023/07/14 00:05:17;;;;;;;12.98;5.15;;;;;;;24.30;56.87;93914.63;5062631;28;20044;-77
2023/07/14 00:07:43;;;;;;;15.98;5.80;;;;;;;24.28;56.32;93911.53;5062927;28;20032;-78
2023/07/14 00:10:21;;;;;;;11.90;5.53;;;;;;;24.19;56.87;93907.31;5063195;28;20036;-78
2023/07/14 00:12:48;;;;;;;14.05;6.20;;;;;;;24.12;57.33;93910.09;5063176;28;20074;-77
2023/07/14 00:15:15;;;;;;;15.25;5.55;;;;;;;24.16;57.57;93905.41;5063236;28;20020;-78
2023/07/14 00:17:41;;;;;;;15.65;6.13;;;;;;;24.12;57.23;93912.03;5063321;28;20311;-77
2023/07/14 00:20:22;;;;;;;18.00;6.65;;;;;;;24.09;56.72;93904.66;5062546;28;20357;-78
2023/07/14 00:22:48;;;;;;;17.10;5.70;;;;;;;24.07;57.34;93896.88;5062986;28;20253;-78
2023/07/14 00:25:13;;;;;;;11.43;5.70;;;;;;;24.04;57.34;93894.97;5062751;28;20028;-79
2023/07/14 00:27:39;;;;;;;10.32;5.22;;;;;;;24.02;57.76;93892.66;5062614;28;20020;-77
2023/07/14 00:30:20;;;;;;;14.35;5.75;;;;;;;24.02;58.06;93894.59;5062588;28;20200;-78
2023/07/14 00:32:47;;;;;;;11.15;6.25;;;;;;;23.95;57.97;93894.63;5062434;28;20104;-77
2023/07/14 00:35:17;;;;;;;15.38;5.13;;;;;;;23.94;58.04;93890.38;5062623;28;20028;-77
2023/07/14 00:37:43;;;;;;;10.40;5.40;;;;;;;23.92;57.72;93885.31;5062785;28;20028;-78
2023/07/14 00:40:14;;;;;;;13.40;6.07;;;;;;;23.89;58.21;93890.78;5062117;28;20025;-77
2023/07/14 00:42:39;;;;;;;17.15;7.15;;;;;;;23.87;58.20;93882.22;5062405;28;20031;-78
2023/07/14 00:45:16;;;;;;;14.10;5.55;;;;;;;23.87;58.22;93895.84;5062426;28;20033;-78
2023/07/14 00:47:42;;;;;;;11.90;5.60;;;;;;;23.80;57.96;93905.59;5062946;28;20147;-78
2023/07/14 00:50:21;;;;;;;12.77;5.38;;;;;;;23.76;58.31;93939.41;5061145;28;20052;-77
2023/07/14 00:52:48;;;;;;;18.48;6.32;;;;;;;23.44;59.45;93954.66;5064799;28;20036;-77
2023/07/14 00:55:35;;;;;;;21.33;6.80;;;;;;;23.28;60.20;93965.19;5063840;28;20246;-77
2023/07/14 00:58:02;;;;;;;15.60;6.22;;;;;;;23.26;60.17;93969.47;5065417;28;20025;-78
2023/07/14 01:00:30;;;;;;;16.63;7.40;;;;;;;23.20;60.87;93966.38;5065693;28;20123;-77
2023/07/14 01:02:57;;;;;;;14.35;5.93;;;;;;;23.18;60.98;93968.69;5065327;28;20055;-78
2023/07/14 01:05:25;;;;;;;10.95;5.93;;;;;;;23.13;61.13;93971.81;5065416;28;20346;-77
2023/07/14 01:07:51;;;;;;;12.73;6.15;;;;;;;23.15;60.90;93977.66;5065350;28;20052;-78
2023/07/14 01:10:21;;;;;;;18.10;6.35;;;;;;;23.13;61.28;93971.81;5065269;28;20021;-78
2023/07/14 01:12:52;;;;;;;17.20;6.82;;;;;;;23.19;61.07;93970.25;5065358;28;20226;-77
2023/07/14 01:15:18;;;;;;;18.30;7.80;;;;;;;23.16;61.70;93973.75;5066858;28;20365;-78
2023/07/14 01:17:45;;;;;;;14.07;6.47;;;;;;;23.18;61.81;93968.69;5065841;28;20024;-78
2023/07/14 01:20:11;;;;;;;13.75;6.57;;;;;;;23.20;61.87;93967.16;5065414;28;20028;-78
2023/07/14 01:22:46;;;;;;;14.25;6.97;;;;;;;23.16;61.97;93966.38;5065054;28;20043;-79
2023/07/14 01:25:20;;;;;;;19.65;6.25;;;;;;;23.12;61.99;93976.50;5065608;28;20337;-78
2023/07/14 01:27:47;;;;;;;14.80;6.45;;;;;;;23.07;62.25;93973.38;5065018;28;20087;-78
2023/07/14 01:30:14;;;;;;;22.80;7.13;;;;;;;23.07;62.29;93967.94;5065361;28;20017;-78
2023/07/14 01:32:45;;;;;;;15.35;6.78;;;;;;;23.04;62.17;93955.91;5064862;28;20044;-77
2023/07/14 01:35:12;;;;;;;17.80;7.18;;;;;;;22.99;62.19;93957.03;5065053;28;20084;-77
2023/07/14 01:37:39;;;;;;;15.20;7.28;;;;;;;22.92;62.43;93948.91;5064609;28;20048;-78
2023/07/14 01:40:11;;;;;;;11.20;6.35;;;;;;;22.94;63.00;93954.72;5064494;28;20024;-77
2023/07/14 01:42:38;;;;;;;22.75;7.55;;;;;;;22.97;62.98;93948.50;5064665;28;20326;-77
2023/07/14 01:45:05;;;;;;;16.52;7.63;;;;;;;23.04;62.76;93950.47;5064556;28;20044;-78
2023/07/14 01:47:30;;;;;;;16.75;6.93;;;;;;;23.08;62.93;93943.09;5064563;28;20094;-78
2023/07/14 01:49:58;;;;;;;18.20;6.88;;;;;;;23.10;63.09;93934.53;5064531;28;20021;-78
2023/07/14 01:52:30;;;;;;;14.35;7.30;;;;;;;23.06;63.34;93928.31;5064522;28;20307;-78
2023/07/14 01:55:04;;;;;;;;;;;;;;;23.03;63.54;93927.94;5064860;28;20064;-78
2023/07/14 01:57:33;;;;;;;15.18;7.00;;;;;;;23.01;63.20;93929.47;5064407;28;20076;-78
2023/07/14 02:00:05;;;;;;;17.20;7.78;;;;;;;23.02;63.55;93937.28;5064212;28;20029;-78
2023/07/14 02:02:34;;;;;;;16.38;7.38;;;;;;;23.05;63.50;93930.28;5064503;28;20048;-78
2023/07/14 02:05:15;;;;;;;17.92;6.63;;;;;;;23.09;63.65;93941.16;5064317;28;20036;-78
2023/07/14 02:07:41;;;;;;;13.25;6.85;;;;;;;23.07;63.60;93948.91;5064184;28;20024;-78
2023/07/14 02:10:18;;;;;;;13.07;7.40;;;;;;;23.10;63.38;93967.94;5064158;28;20093;-77
2023/07/14 02:12:46;;;;;;;16.50;7.07;;;;;;;23.02;63.29;93974.56;5064308;28;20083;-77
2023/07/14 02:15:19;;;;;;;14.13;7.25;;;;;;;22.90;63.52;93992.00;5064100;28;20025;-76
2023/07/14 02:17:47;;;;;;;18.42;7.65;;;;;;;22.80;64.01;94011.78;5064265;28;20036;-77
2023/07/14 02:20:22;;;;;;;19.55;7.68;;;;;;;22.76;64.28;94019.16;5063845;28;20040;-77
2023/07/14 02:22:49;;;;;;;12.45;6.88;;;;;;;22.53;65.06;94028.44;5063749;28;20029;-77
2023/07/14 02:25:18;;;;;;;18.60;7.22;;;;;;;22.44;65.31;94036.19;5063916;28;20104;-77
2023/07/14 02:27:44;;;;;;;14.40;6.25;;;;;;;22.35;65.47;94044.69;5063758;28;20211;-76
2023/07/14 02:30:16;;;;;;;17.60;6.85;;;;;;;22.33;65.46;94041.59;5063719;28;20017;-76
2023/07/14 02:32:45;;;;;;;12.50;6.57;;;;;;;22.34;66.26;94051.28;5063895;28;20172;-77
2023/07/14 02:35:37;;;;;;;15.52;6.47;;;;;;;22.36;66.22;94045.47;5063665;28;20021;-77
2023/07/14 02:38:17;;;;;;;20.05;7.43;;;;;;;22.33;66.94;94051.66;5052379;28;20104;-77
2023/07/14 02:40:52;;;;;;;29.08;8.43;;;;;;;22.38;66.65;94062.16;5063506;28;20050;-77
2023/07/14 02:43:19;;;;;;;14.68;6.55;;;;;;;22.42;66.62;94060.22;5063432;28;20013;-77
2023/07/14 02:46:01;;;;;;;21.98;7.57;;;;;;;22.42;66.46;94066.41;5063648;28;20017;-77
2023/07/14 02:48:39;;;;;;;14.93;6.88;;;;;;;22.44;64.66;94055.19;5063308;28;20085;-78
2023/07/14 02:51:05;;;;;;;14.98;7.03;;;;;;;22.46;63.38;94054.81;5063242;28;20352;-78
2023/07/14 02:53:30;;;;;;;10.57;5.90;;;;;;;22.47;63.24;94057.16;5063006;28;20049;-78
2023/07/14 02:55:56;;;;;;;12.18;6.00;;;;;;;22.60;61.60;94055.63;5063259;28;20020;-78
2023/07/14 02:58:22;;;;;;;15.45;6.43;;;;;;;22.80;59.88;94058.75;5063108;28;20055;-78
2023/07/14 03:00:47;;;;;;;13.23;5.45;;;;;;;22.96;59.19;94047.53;5063084;28;20249;-78
2023/07/14 03:03:13;;;;;;;12.07;5.38;;;;;;;23.17;56.36;94043.28;5063321;28;20020;-78
2023/07/14 03:05:38;;;;;;;10.90;5.88;;;;;;;23.41;54.76;94041.72;5063023;28;20020;-79
2023/07/14 03:08:07;;;;;;;11.90;6.68;;;;;;;23.68;53.40;94044.00;5062754;28;20021;-78
2023/07/14 03:10:33;;;;;;;14.60;5.78;;;;;;;23.92;49.83;94047.88;5063043;28;20021;-78
2023/07/14 03:12:59;;;;;;;11.15;6.05;;;;;;;24.17;48.80;94047.75;5063129;28;20016;-77
2023/07/14 03:15:24;;;;;;;12.10;5.72;;;;;;;24.41;47.74;94043.38;5062491;28;20028;-78
2023/07/14 03:17:50;;;;;;;13.57;6.35;;;;;;;24.59;44.73;94051.50;5062829;28;20028;-77
2023/07/14 03:20:16;;;;;;;18.80;6.07;;;;;;;24.79;43.28;94043.56;5062580;28;20374;-77
2023/07/14 03:22:43;;;;;;;12.82;6.13;;;;;;;25.00;41.88;94043.44;5061746;28;20227;-77
2023/07/14 03:25:08;;;;;;;15.68;6.65;;;;;;;25.14;42.37;94058.16;5062831;28;20758;-77
2023/07/14 03:27:34;;;;;;;14.70;6.32;;;;;;;25.21;43.26;94061.59;5062818;28;20092;-77
2023/07/14 03:29:59;;;;;;;13.45;6.07;;;;;;;25.23;42.82;94061.22;5062681;28;20315;-77
2023/07/14 03:32:25;;;;;;;18.38;6.50;;;;;;;25.28;42.02;94071.69;5062535;28;20029;-76
2023/07/14 03:34:50;;;;;;;11.45;6.18;;;;;;;25.39;41.89;94080.56;5062614;28;20088;-76
2023/07/14 03:37:16;;;;;;;18.52;6.63;;;;;;;25.40;42.50;94082.13;5062583;28;20338;-77
2023/07/14 03:39:41;;;;;;;14.27;6.07;;;;;;;25.46;42.40;94089.88;5062649;28;20088;-76
2023/07/14 03:42:07;;;;;;;13.48;6.97;;;;;;;25.45;40.77;94099.25;5062709;28;20025;-76
2023/07/14 03:44:32;;;;;;;11.90;5.97;;;;;;;25.50;40.84;94101.53;5062451;28;20031;-77
2023/07/14 03:46:58;;;;;;;11.77;6.28;;;;;;;25.53;39.03;94095.28;5062383;28;20048;-77
2023/07/14 03:49:24;;;;;;;15.32;6.38;;;;;;;25.55;38.64;94101.88;5062489;28;20013;-76
2023/07/14 03:51:52;;;;;;;13.20;7.10;;;;;;;25.60;39.79;94095.19;5062372;28;20059;-76
2023/07/14 03:54:17;;;;;;;14.73;6.97;;;;;;;25.64;37.34;94095.94;5062369;28;20116;-77
2023/07/14 03:56:44;;;;;;;15.43;7.22;;;;;;;25.64;37.23;94098.66;5062718;28;20024;-77
2023/07/14 03:59:10;;;;;;;13.43;7.45;;;;;;;25.69;36.64;94098.25;5062296;28;20041;-76
2023/07/14 04:01:35;;;;;;;17.17;7.18;;;;;;;25.75;36.13;94090.41;5062388;28;20388;-77
2023/07/14 04:04:01;;;;;;;17.42;7.88;;;;;;;25.80;35.90;94104.38;5061266;28;20096;-77
2023/07/14 04:06:26;;;;;;;16.33;7.20;;;;;;;25.91;35.41;94103.50;5062468;28;20075;-77
2023/07/14 04:08:55;;;;;;;17.10;7.68;;;;;;;25.99;35.74;94116.72;5062394;28;20021;-76
2023/07/14 04:11:20;;;;;;;18.73;7.47;;;;;;;26.06;39.01;94132.25;5062285;28;20020;-76
2023/07/14 04:13:46;;;;;;;14.77;7.88;;;;;;;25.96;44.48;94139.34;5062235;28;20021;-77
2023/07/14 04:16:11;;;;;;;19.00;7.40;;;;;;;25.91;47.53;94137.06;5062206;28;20016;-78
2023/07/14 04:18:37;;;;;;;21.05;9.57;;;;;;;25.85;48.39;94146.06;5062086;28;20040;-78
2023/07/14 04:21:09;;;;;;;23.52;7.53;;;;;;;25.81;49.42;94151.56;5062194;28;20036;-78
2023/07/14 04:23:35;;;;;;;17.27;7.88;;;;;;;25.67;50.92;94165.34;5062005;28;20231;-77
2023/07/14 04:26:01;;;;;;;15.50;8.38;;;;;;;25.55;50.88;94172.06;5062768;28;20054;-76
2023/07/14 04:28:28;;;;;;;15.93;7.65;;;;;;;25.31;52.19;94180.00;5065859;28;20035;-77
2023/07/14 04:30:58;;;;;;;20.77;8.32;;;;;;;25.38;52.62;94185.41;5065971;28;20016;-77
2023/07/14 04:33:24;;;;;;;27.30;7.80;;;;;;;25.36;52.38;94189.72;5065983;28;20025;-76
2023/07/14 04:35:54;;;;;;;22.58;8.02;;;;;;;25.17;50.16;94193.69;5065694;28;20028;-77
2023/07/14 04:38:21;;;;;;;12.98;7.20;;;;;;;24.92;49.83;94205.50;5065653;28;20334;-76
2023/07/14 04:40:47;;;;;;;19.05;7.70;;;;;;;24.77;50.15;94199.34;5065728;28;20395;-76
2023/07/14 04:43:13;;;;;;;17.95;7.03;;;;;;;24.54;50.38;94207.19;5065975;28;20040;-77
2023/07/14 04:45:40;;;;;;;19.40;8.35;;;;;;;24.54;50.70;94220.81;5065799;28;20096;-76
2023/07/14 04:48:07;;;;;;;13.38;7.45;;;;;;;24.48;52.06;94222.38;5065741;28;20245;-77
2023/07/14 04:50:33;;;;;;;19.48;7.50;;;;;;;24.48;50.58;94223.13;5065553;28;20338;-76
2023/07/14 04:52:59;;;;;;;26.17;7.97;;;;;;;24.35;51.74;94241.84;5065472;28;20242;-77
2023/07/14 04:55:28;;;;;;;16.67;6.97;;;;;;;24.36;53.13;94234.44;5065187;28;20044;-77
2023/07/14 04:57:53;;;;;;;17.80;7.22;;;;;;;24.29;53.90;94237.97;5065373;28;20092;-77
2023/07/14 05:00:20;;;;;;;14.85;6.93;;;;;;;24.32;52.74;94229.03;5065160;28;20028;-77
2023/07/14 05:02:46;;;;;;;18.55;7.32;;;;;;;24.33;53.98;94246.16;5065559;28;20025;-76
2023/07/14 05:05:16;;;;;;;19.65;7.38;;;;;;;24.30;52.02;94241.47;5065422;28;20051;-77
2023/07/14 05:07:42;;;;;;;22.77;7.53;;;;;;;24.34;53.75;94244.97;5065512;28;20021;-76
2023/07/14 05:10:08;;;;;;;15.07;7.35;;;;;;;24.39;52.44;94239.13;5065314;28;20088;-76
2023/07/14 05:12:33;;;;;;;20.52;8.23;;;;;;;24.49;52.24;94238.34;5064978;28;20020;-76
2023/07/14 05:15:06;;;;;;;20.40;7.13;;;;;;;24.53;52.60;94227.47;5065361;28;20192;-76
2023/07/14 05:17:35;;;;;;;18.23;7.25;;;;;;;24.58;51.62;94229.78;5065206;28;20047;-77
2023/07/14 05:20:00;;;;;;;14.88;6.68;;;;;;;24.69;52.77;94240.63;5065508;28;20021;-76
2023/07/14 05:22:26;;;;;;;13.93;7.72;;;;;;;24.70;53.96;94234.03;5064918;28;20195;-77
2023/07/14 05:24:51;;;;;;;21.25;7.85;;;;;;;24.73;54.24;94247.66;5065970;28;20331;-76
2023/07/14 05:27:17;;;;;;;13.88;7.18;;;;;;;24.73;52.60;94239.47;5064989;28;20017;-76
2023/07/14 05:29:44;;;;;;;25.40;8.25;;;;;;;24.78;53.03;94235.56;5065108;28;20009;-76
2023/07/14 05:32:10;;;;;;;22.00;7.80;;;;;;;24.82;53.18;94245.25;5064836;28;20086;-76
2023/07/14 05:34:35;;;;;;;18.00;7.88;;;;;;;24.88;52.82;94248.38;5064677;28;20029;-76
2023/07/14 05:37:00;;;;;;;15.10;8.05;;;;;;;24.85;53.18;94243.69;5064371;28;20094;-76
2023/07/14 05:39:26;;;;;;;13.73;7.25;;;;;;;24.90;53.43;94245.25;5064744;28;20303;-76
2023/07/14 05:41:51;;;;;;;20.33;8.40;;;;;;;25.00;54.93;94247.94;5064910;28;20215;-76
2023/07/14 05:44:17;;;;;;;16.40;7.90;;;;;;;24.94;53.63;94248.75;5064640;28;20021;-76
2023/07/14 05:46:42;;;;;;;15.80;7.35;;;;;;;24.94;54.68;94251.47;5064556;28;20029;-77
2023/07/14 05:49:08;;;;;;;26.95;7.45;;;;;;;24.92;55.87;94254.59;5064491;28;20024;-76
2023/07/14 05:51:33;;;;;;;14.75;8.07;;;;;;;24.97;54.67;94256.91;5064400;28;20055;-75
2023/07/14 05:53:58;;;;;;;26.38;7.78;;;;;;;25.05;55.74;94248.69;5064282;28;20048;-77
2023/07/14 05:56:33;;;;;;;12.30;6.15;;;;;;;25.10;54.89;94245.56;5064582;28;20193;-76
2023/07/14 05:58:58;;;;;;;15.43;7.50;;;;;;;25.17;54.12;94250.97;5064565;28;20421;-77
2023/07/14 06:01:24;;;;;;;19.45;6.80;;;;;;;25.23;55.24;94246.69;5064366;28;20029;-76
2023/07/14 06:03:49;;;;;;;17.73;7.60;;;;;;;25.33;54.36;94251.31;5064431;28;20021;-76
2023/07/14 06:06:15;;;;;;;10.98;6.63;;;;;;;25.41;54.15;94238.41;5063292;28;20020;-77
2023/07/14 06:08:42;;;;;;;14.98;7.43;;;;;;;25.43;53.62;94245.00;5064043;28;20016;-76
2023/07/14 06:11:07;;;;;;;16.17;6.80;;;;;;;25.47;53.50;94241.50;5064292;28;20029;-78
2023/07/14 06:13:33;;;;;;;24.83;7.57;;;;;;;25.52;52.85;94241.84;5064144;28;20121;-78
2023/07/14 06:15:59;;;;;;;21.50;7.60;;;;;;;25.55;52.80;94243.00;5064167;28;20029;-78
2023/07/14 06:18:24;;;;;;;21.65;8.30;;;;;;;25.65;53.77;94239.44;5063899;28;20028;-77
2023/07/14 06:20:50;;;;;;;18.10;7.82;;;;;;;25.76;52.83;94240.13;5064065;28;20031;-76
2023/07/14 06:23:16;;;;;;;17.35;7.68;;;;;;;25.73;52.30;94243.66;5063980;28;20311;-77
2023/07/14 06:25:42;;;;;;;17.00;7.03;;;;;;;25.77;52.51;94247.16;5064224;28;20143;-76
2023/07/14 06:28:08;;;;;;;11.88;7.18;;;;;;;25.76;52.25;94229.19;5063755;28;20017;-77
2023/07/14 06:30:34;;;;;;;18.98;7.60;;;;;;;25.82;52.21;94233.06;5063821;28;20009;-76
2023/07/14 06:33:01;;;;;;;21.83;7.43;;;;;;;25.85;52.46;94230.69;5063620;28;20092;-78
2023/07/14 06:35:27;;;;;;;16.95;6.53;;;;;;;25.91;52.80;94229.91;5063489;28;20090;-81
2023/07/14 06:37:52;;;;;;;20.85;8.13;;;;;;;25.99;52.62;94242.34;5063366;28;20017;-74
2023/07/14 06:40:20;;;;;;;33.83;8.05;;;;;;;26.18;52.63;94237.50;5063448;28;20048;-73
2023/07/14 06:42:46;;;;;;;18.98;7.57;;;;;;;26.23;52.39;94240.53;5062193;28;20082;-72
2023/07/14 06:45:12;;;;;;;22.63;8.15;;;;;;;26.29;52.29;94238.16;5061921;28;20025;-72
2023/07/14 06:47:38;;;;;;;19.90;7.40;;;;;;;26.27;52.24;94234.28;5061958;28;20021;-72
2023/07/14 06:50:04;;;;;;;22.75;8.43;;;;;;;26.23;53.21;94232.34;5061650;28;20025;-73
2023/07/14 06:52:30;;;;;;;14.60;7.53;;;;;;;26.36;52.96;94235.38;5062083;28;20038;-72
2023/07/14 06:54:57;;;;;;;13.27;7.38;;;;;;;26.53;51.89;94241.84;5062633;28;20108;-72
2023/07/14 06:57:22;;;;;;;18.23;7.40;;;;;;;26.50;51.31;94237.19;5062794;28;20327;-72
2023/07/14 06:59:48;;;;;;;14.10;7.45;;;;;;;26.45;52.13;94240.34;5063259;28;20024;-72
2023/07/14 07:02:14;;;;;;;20.98;7.57;;;;;;;26.32;52.58;94231.91;5063140;28;20025;-73
2023/07/14 07:04:40;;;;;;;19.20;7.93;;;;;;;26.31;52.82;94230.31;5063213;28;20040;-73
2023/07/14 07:07:06;;;;;;;25.92;7.88;;;;;;;26.28;52.40;94247.53;5063289;28;20029;-76
2023/07/14 07:09:32;;;;;;;17.20;7.35;;;;;;;26.23;53.69;94237.81;5062988;28;20286;-73
2023/07/14 07:11:57;;;;;;;14.38;7.13;;;;;;;26.26;53.61;94238.22;5061928;28;20021;-73
2023/07/14 07:14:23;;;;;;;13.27;6.50;;;;;;;26.36;53.90;94242.78;5062929;28;20341;-72
2023/07/14 07:16:49;;;;;;;18.80;6.95;;;;;;;26.39;53.28;94236.50;5062535;28;20349;-76
2023/07/14 07:19:16;;;;;;;18.13;6.95;;;;;;;26.45;52.90;94248.56;5062940;28;20029;-73
2023/07/14 07:21:41;;;;;;;15.70;8.23;;;;;;;26.53;53.20;94239.09;5062943;28;20044;-73
2023/07/14 07:24:08;;;;;;;11.77;7.35;;;;;;;26.67;52.57;94240.94;5062850;28;20032;-73
2023/07/14 07:26:33;;;;;;;17.20;7.25;;;;;;;26.72;52.12;94248.69;5062784;28;20071;-74
2023/07/14 07:28:59;;;;;;;13.07;6.50;;;;;;;26.70;52.39;94247.53;5062646;28;20096;-74
2023/07/14 07:31:24;;;;;;;16.23;6.95;;;;;;;26.76;52.14;94248.66;5062815;28;20025;-73
2023/07/14 07:33:50;;;;;;;13.13;7.82;;;;;;;26.84;51.55;94247.38;5062657;28;20021;-73
2023/07/14 07:36:16;;;;;;;28.88;6.97;;;;;;;26.91;51.96;94238.31;5062716;28;20024;-73
2023/07/14 07:38:47;;;;;;;13.45;7.47;;;;;;;27.12;51.52;94245.50;5062672;28;20060;-73
2023/07/14 07:41:19;;;;;;;23.77;7.75;;;;;;;27.25;51.46;94234.81;5062898;28;20212;-73
2023/07/14 07:43:44;;;;;;;;;;;;;;;27.12;50.52;94240.03;5062997;28;20024;-73
2023/07/14 07:46:10;;;;;;;18.30;7.63;;;;;;;27.06;51.17;94228.00;5062360;28;19935;-74
2023/07/14 07:49:13;;;;;;;14.05;6.97;;;;;;;27.01;51.56;94226.50;5062482;28;20029;-74
2023/07/14 07:51:38;;;;;;;16.00;6.95;;;;;;;27.15;51.50;94223.59;5061192;28;20025;-73
2023/07/14 07:54:04;;;;;;;10.77;6.47;;;;;;;27.19;51.58;94218.84;5061118;28;20040;-73
2023/07/14 07:56:30;;;;;;;20.58;8.23;;;;;;;27.31;50.49;94220.25;5061733;28;20031;-73
2023/07/14 07:58:55;;;;;;;14.07;6.93;;;;;;;27.44;50.90;94215.00;5060408;28;20370;-74
2023/07/14 08:01:24;;;;;;;13.73;7.75;;;;;;;27.62;50.82;94222.97;5063712;28;20246;-74
2023/07/14 08:03:51;;;;;;;16.13;5.50;;;;;;;27.55;48.64;94214.84;5064592;28;20052;-74
2023/07/14 08:06:17;;;;;;;9.57;5.97;;;;;;;27.49;48.95;94220.00;5063374;28;20017;-73
2023/07/14 08:08:44;;;;;;;16.63;6.63;;;;;;;27.46;49.11;94222.78;5064715;28;20028;-74
2023/07/14 08:11:11;;;;;;;13.38;5.75;;;;;;;27.47;48.41;94213.41;5065040;28;20024;-75
2023/07/14 08:13:37;;;;;;;14.18;6.78;;;;;;;27.50;48.85;94207.88;5066098;28;20025;-74
2023/07/14 08:16:02;;;;;;;16.42;6.85;;;;;;;27.52;48.88;94213.72;5066269;28;20247;-74
2023/07/14 08:18:29;;;;;;;17.58;6.10;;;;;;;27.52;48.80;94207.44;5064802;28;20032;-73
2023/07/14 08:20:55;;;;;;;12.82;6.38;;;;;;;27.39;48.95;94208.03;5066218;28;20263;-75
2023/07/14 08:23:22;;;;;;;13.80;5.60;;;;;;;27.39;49.11;94197.06;5065832;28;20028;-74
2023/07/14 08:25:56;;;;;;;17.08;6.82;;;;;;;27.41;50.12;94199.41;5065807;28;20020;-75
2023/07/14 08:28:22;;;;;;;16.85;7.20;;;;;;;27.55;49.67;94190.22;5065948;28;20071;-74
2023/07/14 08:30:52;;;;;;;12.52;6.57;;;;;;;27.64;49.40;94201.44;5065970;28;20032;-74
2023/07/14 08:33:19;;;;;;;21.98;6.68;;;;;;;27.56;49.44;94197.22;5065915;28;20028;-74
2023/07/14 08:35:45;;;;;;;22.33;7.38;;;;;;;27.55;48.98;94198.44;5066049;28;20044;-74
2023/07/14 08:38:11;;;;;;;15.60;7.32;;;;;;;27.70;49.15;94185.28;5065831;28;20319;-75
2023/07/14 08:40:48;;;;;;;18.52;6.80;;;;;;;27.87;48.25;94189.75;5065649;28;20361;-74
2023/07/14 08:43:42;;;;;;;15.10;6.57;;;;;;;27.97;48.08;94190.75;5065885;28;20025;-74
2023/07/14 08:46:21;;;;;;;29.00;7.68;;;;;;;28.15;48.57;94187.69;5065713;28;20066;-75
2023/07/14 08:48:56;;;;;;;22.08;7.25;;;;;;;28.32;47.95;94194.06;5065625;28;20025;-74
2023/07/14 08:51:36;;;;;;;19.75;7.28;;;;;;;28.38;47.07;94193.16;5065758;28;20055;-74
2023/07/14 08:54:09;;;;;;;18.10;6.78;;;;;;;28.33;46.97;94182.69;5065435;28;20056;-74
2023/07/14 08:56:37;;;;;;;20.90;7.57;;;;;;;28.30;47.10;94177.28;5065393;28;20025;-75
2023/07/14 08:59:05;;;;;;;15.65;6.63;;;;;;;28.36;46.44;94179.09;5065507;28;20060;-76
2023/07/14 09:01:50;;;;;;;19.55;7.10;;;;;;;28.52;46.49;94178.44;5065273;28;20059;-76
2023/07/14 09:04:28;;;;;;;14.07;7.15;;;;;;;28.64;45.43;94187.22;5065469;28;20028;-76
2023/07/14 09:06:54;;;;;;;13.20;6.82;;;;;;;28.73;44.39;94179.22;5065504;28;20314;-76
2023/07/14 09:09:27;;;;;;;20.75;6.97;;;;;;;28.83;44.06;94177.47;5065424;28;20029;-76
2023/07/14 09:12:22;;;;;;;21.48;8.27;;;;;;;28.98;44.91;94168.53;5064587;28;20086;-74
2023/07/14 09:15:05;;;;;;;16.10;6.40;;;;;;;29.12;44.63;94177.66;5065227;28;20075;-75
2023/07/14 09:17:45;;;;;;;15.13;6.55;;;;;;;29.19;44.47;94169.31;5065438;28;20036;-75
2023/07/14 09:20:19;;;;;;;22.15;7.07;;;;;;;29.33;44.25;94166.25;5065363;28;20037;-76
2023/07/14 09:22:53;;;;;;;20.50;7.22;;;;;;;29.46;44.57;94168.31;5065206;28;20020;-76
2023/07/14 09:25:34;;;;;;;16.30;7.10;;;;;;;29.51;43.91;94157.56;5065053;28;20039;-76
2023/07/14 09:28:00;;;;;;;11.43;6.38;;;;;;;29.58;43.84;94154.66;5064965;28;20040;-76
2023/07/14 09:30:28;;;;;;;18.20;6.65;;;;;;;29.68;44.67;94152.88;5064633;28;20342;-75
2023/07/14 09:33:00;;;;;;;17.23;7.10;;;;;;;29.74;43.54;94162.19;5063762;28;20054;-75
2023/07/14 09:35:26;;;;;;;;;;;;;;;29.57;43.89;94153.13;5064841;28;20036;-74
2023/07/14 09:38:03;;;;;;;20.60;6.78;;;;;;;29.67;44.40;94145.81;5064916;28;20080;-75
2023/07/14 09:40:36;;;;;;;10.82;7.05;;;;;;;29.72;43.93;94148.09;5064465;28;20029;-75
2023/07/14 09:43:03;;;;;;;15.68;6.78;;;;;;;29.68;42.17;94155.63;5064626;28;20032;-75
2023/07/14 09:45:34;;;;;;;14.48;6.80;;;;;;;29.56;42.63;94156.31;5064578;28;20032;-75
2023/07/14 09:48:05;;;;;;;15.90;7.03;;;;;;;29.40;44.33;94144.09;5064672;28;20027;-78
2023/07/14 09:50:35;;;;;;;29.90;7.60;;;;;;;29.40;42.73;94149.59;5064471;28;20088;-75
2023/07/14 09:53:07;;;;;;;13.85;6.88;;;;;;;29.33;44.07;94149.78;5064323;28;20020;-76
2023/07/14 09:56:04;;;;;;;20.77;7.50;;;;;;;29.37;43.72;94138.69;5064469;28;20040;-76
2023/07/14 09:58:31;;;;;;;17.10;7.43;;;;;;;29.40;43.85;94135.88;5064348;28;20025;-76
2023/07/14 10:01:02;;;;;;;17.75;7.15;;;;;;;29.52;44.15;94130.91;5064259;28;20027;-76
2023/07/14 10:03:41;;;;;;;21.02;8.45;;;;;;;29.54;42.81;94134.00;5064230;28;20024;-76
2023/07/14 10:06:20;;;;;;;13.25;7.30;;;;;;;29.55;42.36;94125.34;5064304;28;20398;-77
2023/07/14 10:08:51;;;;;;;13.10;8.48;;;;;;;29.36;43.11;94129.69;5064138;28;20021;-76
2023/07/14 10:11:24;;;;;;;16.67;7.80;;;;;;;29.36;42.36;94121.44;5063909;28;20028;-76
2023/07/14 10:13:54;;;;;;;20.42;7.07;;;;;;;29.43;43.46;94125.22;5063610;28;20319;-76
2023/07/14 10:16:21;;;;;;;24.73;7.70;;;;;;;29.45;42.52;94117.34;5064112;28;20034;-77
2023/07/14 10:19:14;;;;;;;27.42;8.32;;;;;;;29.47;42.89;94112.19;5064076;28;20128;-76
2023/07/14 10:21:54;;;;;;;14.77;7.60;;;;;;;29.52;42.32;94111.69;5063856;28;20021;-77
2023/07/14 10:24:20;;;;;;;20.77;8.27;;;;;;;29.63;42.61;94103.19;5062354;28;20020;-77
2023/07/14 10:26:52;;;;;;;22.55;8.15;;;;;;;29.75;41.27;94108.78;5062298;28;20025;-76
2023/07/14 10:29:20;;;;;;;36.35;8.38;;;;;;;29.90;41.28;94108.41;5062297;28;20009;-77
2023/07/14 10:32:03;;;;;;;18.90;8.32;;;;;;;29.94;39.68;94107.13;5062292;28;20247;-77
2023/07/14 10:35:03;;;;;;;22.08;8.43;;;;;;;29.96;40.55;94106.69;5062330;28;20342;-77
2023/07/14 10:37:38;;;;;;;18.67;7.00;;;;;;;29.93;40.14;94096.56;5058269;28;20029;-77
2023/07/14 10:40:14;;;;;;;15.90;7.78;;;;;;;30.06;40.49;94093.88;5063149;28;20196;-77
2023/07/14 10:43:16;;;;;;;17.08;7.75;;;;;;;30.23;40.86;94094.63;5063726;28;20021;-77
2023/07/14 10:45:47;;;;;;;19.35;8.68;;;;;;;30.31;38.90;94088.50;5063647;28;20033;-77
2023/07/14 10:48:25;;;;;;;19.85;8.45;;;;;;;30.38;38.32;94096.53;5063686;28;20039;-76
2023/07/14 10:50:53;;;;;;;13.90;6.93;;;;;;;30.45;38.11;94090.09;5063494;28;20021;-77
2023/07/14 10:53:24;;;;;;;19.83;8.38;;;;;;;30.52;38.04;94100.88;5063273;28;20338;-76
2023/07/14 10:55:52;;;;;;;22.08;8.70;;;;;;;30.59;37.23;94092.44;5063462;28;20234;-76
2023/07/14 10:58:43;;;;;;;20.90;7.43;;;;;;;30.71;37.86;94081.88;5062063;28;20024;-76
2023/07/14 11:01:18;;;;;;;13.90;6.97;;;;;;;30.83;37.45;94089.38;5063280;28;20025;-76
2023/07/14 11:03:53;;;;;;;19.15;8.00;;;;;;;30.89;37.36;94089.66;5062269;28;20334;-76
2023/07/14 11:06:28;;;;;;;23.73;8.40;;;;;;;30.92;37.26;94086.78;5063059;28;20328;-76
2023/07/14 11:08:56;;;;;;;19.63;7.22;;;;;;;30.96;37.83;94087.47;5063017;28;20032;-76
2023/07/14 11:11:33;;;;;;;16.85;8.18;;;;;;;31.08;36.89;94079.63;5062999;28;20091;-76
2023/07/14 11:14:11;;;;;;;25.48;8.15;;;;;;;31.10;36.60;94082.72;5063032;28;20063;-76
2023/07/14 11:16:42;;;;;;;15.77;7.65;;;;;;;31.16;36.19;94083.72;5062809;28;20031;-76
2023/07/14 11:19:36;;;;;;;19.85;7.85;;;;;;;31.29;35.46;94076.22;5062675;28;20024;-77
2023/07/14 11:22:12;;;;;;;17.52;8.38;;;;;;;31.45;34.65;94080.09;5062946;28;20045;-76
2023/07/14 11:24:47;;;;;;;21.13;8.15;;;;;;;31.59;34.50;94083.16;5062757;28;20047;-76
2023/07/14 11:27:47;;;;;;;16.77;8.05;;;;;;;31.72;34.46;94065.84;5062876;28;20069;-76
2023/07/14 11:30:43;;;;;;;17.85;7.38;;;;;;;31.98;32.85;94067.28;5058868;28;20223;-76
2023/07/14 11:33:12;;;;;;;15.63;7.82;;;;;;;32.05;33.02;94071.81;5058171;28;20032;-76
2023/07/14 11:35:45;;;;;;;20.95;7.72;;;;;;;32.05;32.58;94074.56;5062426;28;20267;-76
2023/07/14 11:38:40;;;;;;;12.48;7.28;;;;;;;31.94;32.24;94068.63;5063056;28;20036;-77